Terminal Aerodrome Forecast
Issued by NWS

Home | Current Version | Previous Version | Text Only | Print | Product List | Glossary On
Versions: 1 2 3 4 5 6 7 8 9 10 11 12
454
FTUS42 TJSJ 221139
TAFNCM
TAF
TNCM 221139Z 2212/2312 09005KT P6SM SCT020
     FM221400 10010KT P6SM SCT022
     FM221800 12012KT P6SM VCSH SCT022 BKN040
     FM222300 08005KT P6SM SCT019 BKN050=

USA.gov is the U.S. government's official web portal to all federal, state and local government web resources and services.